sensor_id;sensor_type;location;lat;lon;timestamp;P1;durP1;ratioP1;P2;durP2;ratioP2
71606;SDS011;60641;53.556;9.914;2022-10-23T00:01:29;14.70;;;5.90;;
71606;SDS011;60641;53.556;9.914;2022-10-23T00:03:58;15.70;;;6.20;;
71606;SDS011;60641;53.556;9.914;2022-10-23T00:06:29;14.30;;;6.20;;
71606;SDS011;60641;53.556;9.914;2022-10-23T00:08:57;15.40;;;5.80;;
71606;SDS011;60641;53.556;9.914;2022-10-23T00:11:24;14.00;;;5.60;;
71606;SDS011;60641;53.556;9.914;2022-10-23T00:13:52;12.90;;;5.90;;
71606;SDS011;60641;53.556;9.914;2022-10-23T00:16:20;13.20;;;5.60;;
71606;SDS011;60641;53.556;9.914;2022-10-23T00:18:47;11.90;;;5.70;;
71606;SDS011;60641;53.556;9.914;2022-10-23T00:21:14;13.70;;;5.90;;
71606;SDS011;60641;53.556;9.914;2022-10-23T00:23:42;15.20;;;5.90;;
71606;SDS011;60641;53.556;9.914;2022-10-23T00:26:09;13.20;;;5.50;;
71606;SDS011;60641;53.556;9.914;2022-10-23T00:28:41;14.50;;;6.10;;
71606;SDS011;60641;53.556;9.914;2022-10-23T00:31:09;11.30;;;5.40;;
71606;SDS011;60641;53.556;9.914;2022-10-23T00:33:36;13.50;;;5.50;;
71606;SDS011;60641;53.556;9.914;2022-10-23T00:36:03;13.30;;;5.70;;
71606;SDS011;60641;53.556;9.914;2022-10-23T00:38:33;9.90;;;5.90;;
71606;SDS011;60641;53.556;9.914;2022-10-23T00:41:00;16.10;;;5.90;;
71606;SDS011;60641;53.556;9.914;2022-10-23T00:43:28;12.20;;;5.80;;
71606;SDS011;60641;53.556;9.914;2022-10-23T00:45:55;12.70;;;5.90;;
71606;SDS011;60641;53.556;9.914;2022-10-23T00:48:22;10.80;;;5.40;;
71606;SDS011;60641;53.556;9.914;2022-10-23T00:50:49;11.90;;;5.90;;
71606;SDS011;60641;53.556;9.914;2022-10-23T00:53:16;13.60;;;5.70;;
71606;SDS011;60641;53.556;9.914;2022-10-23T00:55:44;12.90;;;5.30;;
71606;SDS011;60641;53.556;9.914;2022-10-23T00:58:13;14.90;;;5.80;;
71606;SDS011;60641;53.556;9.914;2022-10-23T01:03:15;10.90;;;5.60;;
71606;SDS011;60641;53.556;9.914;2022-10-23T01:05:45;11.90;;;5.60;;
71606;SDS011;60641;53.556;9.914;2022-10-23T01:08:19;11.40;;;5.90;;
71606;SDS011;60641;53.556;9.914;2022-10-23T01:10:53;10.90;;;5.50;;
71606;SDS011;60641;53.556;9.914;2022-10-23T01:13:43;12.50;;;5.90;;
71606;SDS011;60641;53.556;9.914;2022-10-23T01:16:13;11.40;;;5.80;;
71606;SDS011;60641;53.556;9.914;2022-10-23T01:18:52;12.30;;;6.00;;
71606;SDS011;60641;53.556;9.914;2022-10-23T01:21:27;12.10;;;5.90;;
71606;SDS011;60641;53.556;9.914;2022-10-23T01:35:20;14.00;;;6.30;;
71606;SDS011;60641;53.556;9.914;2022-10-23T01:37:50;12.30;;;6.60;;
71606;SDS011;60641;53.556;9.914;2022-10-23T01:40:21;14.00;;;5.90;;
71606;SDS011;60641;53.556;9.914;2022-10-23T01:42:51;11.10;;;5.90;;
71606;SDS011;60641;53.556;9.914;2022-10-23T01:45:41;13.00;;;6.10;;
71606;SDS011;60641;53.556;9.914;2022-10-23T01:48:12;11.70;;;6.00;;
71606;SDS011;60641;53.556;9.914;2022-10-23T01:50:41;13.30;;;6.40;;
71606;SDS011;60641;53.556;9.914;2022-10-23T01:53:07;14.50;;;6.00;;
71606;SDS011;60641;53.556;9.914;2022-10-23T01:55:34;12.30;;;6.50;;
71606;SDS011;60641;53.556;9.914;2022-10-23T01:58:02;14.60;;;6.00;;
71606;SDS011;60641;53.556;9.914;2022-10-23T02:00:32;14.10;;;6.10;;
71606;SDS011;60641;53.556;9.914;2022-10-23T02:02:59;15.80;;;6.70;;
71606;SDS011;60641;53.556;9.914;2022-10-23T02:05:29;13.00;;;6.60;;
71606;SDS011;60641;53.556;9.914;2022-10-23T02:07:56;14.10;;;6.80;;
71606;SDS011;60641;53.556;9.914;2022-10-23T02:10:25;17.10;;;6.50;;
71606;SDS011;60641;53.556;9.914;2022-10-23T02:13:10;13.40;;;6.40;;
71606;SDS011;60641;53.556;9.914;2022-10-23T02:15:47;11.90;;;6.30;;
71606;SDS011;60641;53.556;9.914;2022-10-23T02:18:28;13.40;;;6.30;;
71606;SDS011;60641;53.556;9.914;2022-10-23T02:20:58;16.70;;;7.00;;
71606;SDS011;60641;53.556;9.914;2022-10-23T02:23:29;15.00;;;6.70;;
71606;SDS011;60641;53.556;9.914;2022-10-23T02:25:59;13.30;;;6.60;;
71606;SDS011;60641;53.556;9.914;2022-10-23T02:28:35;12.60;;;6.40;;
71606;SDS011;60641;53.556;9.914;2022-10-23T02:31:04;15.90;;;6.80;;
71606;SDS011;60641;53.556;9.914;2022-10-23T02:33:35;13.10;;;6.10;;
71606;SDS011;60641;53.556;9.914;2022-10-23T02:36:01;12.80;;;6.40;;
71606;SDS011;60641;53.556;9.914;2022-10-23T02:38:38;15.60;;;7.00;;
71606;SDS011;60641;53.556;9.914;2022-10-23T02:49:32;14.80;;;6.90;;
71606;SDS011;60641;53.556;9.914;2022-10-23T02:57:37;13.70;;;6.80;;
71606;SDS011;60641;53.556;9.914;2022-10-23T03:00:12;11.60;;;5.90;;
71606;SDS011;60641;53.556;9.914;2022-10-23T03:02:43;15.30;;;6.40;;
71606;SDS011;60641;53.556;9.914;2022-10-23T03:05:14;14.00;;;6.60;;
71606;SDS011;60641;53.556;9.914;2022-10-23T03:07:42;14.60;;;6.50;;
71606;SDS011;60641;53.556;9.914;2022-10-23T03:10:08;15.50;;;6.50;;
71606;SDS011;60641;53.556;9.914;2022-10-23T03:12:35;15.20;;;6.50;;
71606;SDS011;60641;53.556;9.914;2022-10-23T03:15:01;13.50;;;6.00;;
71606;SDS011;60641;53.556;9.914;2022-10-23T03:17:28;17.70;;;6.10;;
71606;SDS011;60641;53.556;9.914;2022-10-23T03:19:54;12.80;;;6.20;;
71606;SDS011;60641;53.556;9.914;2022-10-23T03:22:21;14.60;;;6.40;;
71606;SDS011;60641;53.556;9.914;2022-10-23T03:24:47;19.30;;;6.40;;
71606;SDS011;60641;53.556;9.914;2022-10-23T03:27:14;17.40;;;6.00;;
71606;SDS011;60641;53.556;9.914;2022-10-23T03:29:43;14.10;;;6.30;;
71606;SDS011;60641;53.556;9.914;2022-10-23T03:32:09;16.50;;;6.10;;
71606;SDS011;60641;53.556;9.914;2022-10-23T03:34:35;13.20;;;6.00;;
71606;SDS011;60641;53.556;9.914;2022-10-23T03:37:02;11.70;;;6.10;;
71606;SDS011;60641;53.556;9.914;2022-10-23T03:39:28;16.10;;;6.20;;
71606;SDS011;60641;53.556;9.914;2022-10-23T03:41:55;14.40;;;6.20;;
71606;SDS011;60641;53.556;9.914;2022-10-23T03:44:21;15.40;;;6.00;;
71606;SDS011;60641;53.556;9.914;2022-10-23T03:46:48;14.00;;;5.90;;
71606;SDS011;60641;53.556;9.914;2022-10-23T03:49:14;15.30;;;6.20;;
71606;SDS011;60641;53.556;9.914;2022-10-23T03:51:40;16.40;;;6.20;;
71606;SDS011;60641;53.556;9.914;2022-10-23T03:54:07;13.90;;;5.70;;
71606;SDS011;60641;53.556;9.914;2022-10-23T03:56:33;15.60;;;5.90;;
71606;SDS011;60641;53.556;9.914;2022-10-23T03:59:00;12.10;;;6.20;;
71606;SDS011;60641;53.556;9.914;2022-10-23T04:01:26;13.30;;;6.10;;
71606;SDS011;60641;53.556;9.914;2022-10-23T04:03:53;12.00;;;5.70;;
71606;SDS011;60641;53.556;9.914;2022-10-23T04:06:19;15.30;;;6.10;;
71606;SDS011;60641;53.556;9.914;2022-10-23T04:08:46;14.50;;;6.10;;
71606;SDS011;60641;53.556;9.914;2022-10-23T04:11:12;16.40;;;6.20;;
71606;SDS011;60641;53.556;9.914;2022-10-23T04:13:38;13.60;;;6.00;;
71606;SDS011;60641;53.556;9.914;2022-10-23T04:16:05;13.40;;;6.00;;
71606;SDS011;60641;53.556;9.914;2022-10-23T04:18:31;14.90;;;6.00;;
71606;SDS011;60641;53.556;9.914;2022-10-23T04:20:58;17.00;;;6.60;;
71606;SDS011;60641;53.556;9.914;2022-10-23T04:23:24;14.90;;;6.10;;
71606;SDS011;60641;53.556;9.914;2022-10-23T04:25:50;14.00;;;6.50;;
71606;SDS011;60641;53.556;9.914;2022-10-23T04:28:17;14.30;;;6.50;;
71606;SDS011;60641;53.556;9.914;2022-10-23T04:30:43;12.50;;;6.30;;
71606;SDS011;60641;53.556;9.914;2022-10-23T04:33:09;16.20;;;7.10;;
71606;SDS011;60641;53.556;9.914;2022-10-23T04:35:36;14.60;;;6.50;;
71606;SDS011;60641;53.556;9.914;2022-10-23T04:38:02;11.20;;;5.90;;
71606;SDS011;60641;53.556;9.914;2022-10-23T04:40:29;13.60;;;6.60;;
71606;SDS011;60641;53.556;9.914;2022-10-23T04:42:55;13.80;;;6.90;;
71606;SDS011;60641;53.556;9.914;2022-10-23T04:45:21;14.80;;;6.70;;
71606;SDS011;60641;53.556;9.914;2022-10-23T04:47:48;15.40;;;6.60;;
71606;SDS011;60641;53.556;9.914;2022-10-23T04:50:14;14.80;;;7.30;;
71606;SDS011;60641;53.556;9.914;2022-10-23T04:52:41;13.60;;;6.30;;
71606;SDS011;60641;53.556;9.914;2022-10-23T04:55:08;13.10;;;6.40;;
71606;SDS011;60641;53.556;9.914;2022-10-23T04:57:34;13.20;;;7.10;;
71606;SDS011;60641;53.556;9.914;2022-10-23T05:00:01;14.00;;;6.30;;
71606;SDS011;60641;53.556;9.914;2022-10-23T05:02:27;15.30;;;6.70;;
71606;SDS011;60641;53.556;9.914;2022-10-23T05:04:54;11.60;;;5.70;;
71606;SDS011;60641;53.556;9.914;2022-10-23T05:07:20;11.80;;;6.30;;
71606;SDS011;60641;53.556;9.914;2022-10-23T05:09:46;11.30;;;5.40;;
71606;SDS011;60641;53.556;9.914;2022-10-23T05:12:13;13.50;;;5.40;;
71606;SDS011;60641;53.556;9.914;2022-10-23T05:14:40;11.50;;;5.70;;
71606;SDS011;60641;53.556;9.914;2022-10-23T05:17:07;11.10;;;5.20;;
71606;SDS011;60641;53.556;9.914;2022-10-23T05:19:38;9.80;;;5.30;;
71606;SDS011;60641;53.556;9.914;2022-10-23T05:22:07;12.70;;;5.00;;
71606;SDS011;60641;53.556;9.914;2022-10-23T05:24:34;11.70;;;5.70;;
71606;SDS011;60641;53.556;9.914;2022-10-23T05:27:01;13.30;;;5.90;;
71606;SDS011;60641;53.556;9.914;2022-10-23T05:29:27;16.10;;;5.30;;
71606;SDS011;60641;53.556;9.914;2022-10-23T05:31:55;13.10;;;5.00;;
71606;SDS011;60641;53.556;9.914;2022-10-23T05:34:24;12.90;;;5.90;;
71606;SDS011;60641;53.556;9.914;2022-10-23T05:36:51;11.80;;;5.50;;
71606;SDS011;60641;53.556;9.914;2022-10-23T05:39:18;12.00;;;5.60;;
71606;SDS011;60641;53.556;9.914;2022-10-23T05:41:44;11.40;;;5.90;;
71606;SDS011;60641;53.556;9.914;2022-10-23T05:44:11;15.20;;;5.60;;
71606;SDS011;60641;53.556;9.914;2022-10-23T05:46:40;14.00;;;7.90;;
71606;SDS011;60641;53.556;9.914;2022-10-23T05:49:07;14.50;;;5.60;;
71606;SDS011;60641;53.556;9.914;2022-10-23T05:51:36;11.80;;;5.50;;
71606;SDS011;60641;53.556;9.914;2022-10-23T05:54:06;14.90;;;7.70;;
71606;SDS011;60641;53.556;9.914;2022-10-23T05:56:34;12.10;;;5.60;;
71606;SDS011;60641;53.556;9.914;2022-10-23T05:59:02;13.90;;;6.70;;
71606;SDS011;60641;53.556;9.914;2022-10-23T06:01:28;12.50;;;5.30;;
71606;SDS011;60641;53.556;9.914;2022-10-23T06:03:55;11.30;;;5.50;;
71606;SDS011;60641;53.556;9.914;2022-10-23T06:06:24;10.10;;;5.80;;
71606;SDS011;60641;53.556;9.914;2022-10-23T06:08:50;12.40;;;6.10;;
71606;SDS011;60641;53.556;9.914;2022-10-23T06:11:17;14.00;;;5.60;;
71606;SDS011;60641;53.556;9.914;2022-10-23T06:13:44;11.80;;;5.70;;
71606;SDS011;60641;53.556;9.914;2022-10-23T06:16:11;13.40;;;6.00;;
71606;SDS011;60641;53.556;9.914;2022-10-23T06:18:39;13.50;;;6.00;;
71606;SDS011;60641;53.556;9.914;2022-10-23T06:21:05;11.30;;;6.10;;
71606;SDS011;60641;53.556;9.914;2022-10-23T06:23:33;13.50;;;7.10;;
71606;SDS011;60641;53.556;9.914;2022-10-23T06:26:01;11.70;;;5.80;;
71606;SDS011;60641;53.556;9.914;2022-10-23T06:28:28;12.40;;;6.20;;
71606;SDS011;60641;53.556;9.914;2022-10-23T06:30:54;11.90;;;5.50;;
71606;SDS011;60641;53.556;9.914;2022-10-23T06:33:21;13.70;;;8.00;;
71606;SDS011;60641;53.556;9.914;2022-10-23T06:35:47;11.80;;;5.10;;
71606;SDS011;60641;53.556;9.914;2022-10-23T06:38:13;11.60;;;5.70;;
71606;SDS011;60641;53.556;9.914;2022-10-23T06:40:40;10.20;;;4.50;;
71606;SDS011;60641;53.556;9.914;2022-10-23T06:43:07;11.00;;;5.30;;
71606;SDS011;60641;53.556;9.914;2022-10-23T06:45:33;13.90;;;5.30;;
71606;SDS011;60641;53.556;9.914;2022-10-23T06:48:00;12.90;;;4.80;;
71606;SDS011;60641;53.556;9.914;2022-10-23T06:50:27;11.50;;;4.40;;
71606;SDS011;60641;53.556;9.914;2022-10-23T06:52:56;9.60;;;4.10;;
71606;SDS011;60641;53.556;9.914;2022-10-23T06:55:22;11.20;;;4.50;;
71606;SDS011;60641;53.556;9.914;2022-10-23T06:57:49;9.00;;;4.10;;
71606;SDS011;60641;53.556;9.914;2022-10-23T07:00:15;10.60;;;3.70;;
71606;SDS011;60641;53.556;9.914;2022-10-23T07:02:41;9.20;;;3.70;;
71606;SDS011;60641;53.556;9.914;2022-10-23T07:05:08;9.50;;;3.60;;
71606;SDS011;60641;53.556;9.914;2022-10-23T07:07:34;8.20;;;3.60;;
71606;SDS011;60641;53.556;9.914;2022-10-23T07:10:01;9.90;;;4.00;;
71606;SDS011;60641;53.556;9.914;2022-10-23T07:12:27;8.60;;;3.70;;
71606;SDS011;60641;53.556;9.914;2022-10-23T07:14:54;9.70;;;3.70;;
71606;SDS011;60641;53.556;9.914;2022-10-23T07:17:20;9.30;;;3.60;;
71606;SDS011;60641;53.556;9.914;2022-10-23T07:19:47;10.80;;;4.80;;
71606;SDS011;60641;53.556;9.914;2022-10-23T07:22:13;8.40;;;3.70;;
71606;SDS011;60641;53.556;9.914;2022-10-23T07:24:40;9.60;;;4.10;;
71606;SDS011;60641;53.556;9.914;2022-10-23T07:27:06;7.30;;;3.30;;
71606;SDS011;60641;53.556;9.914;2022-10-23T07:29:32;9.50;;;4.10;;
71606;SDS011;60641;53.556;9.914;2022-10-23T07:31:59;12.60;;;4.50;;
71606;SDS011;60641;53.556;9.914;2022-10-23T07:34:26;9.20;;;4.00;;
71606;SDS011;60641;53.556;9.914;2022-10-23T07:36:52;11.40;;;4.30;;
71606;SDS011;60641;53.556;9.914;2022-10-23T07:39:20;10.30;;;4.50;;
71606;SDS011;60641;53.556;9.914;2022-10-23T07:41:47;9.90;;;4.30;;
71606;SDS011;60641;53.556;9.914;2022-10-23T07:44:14;10.30;;;4.20;;
71606;SDS011;60641;53.556;9.914;2022-10-23T07:46:40;11.40;;;4.30;;
71606;SDS011;60641;53.556;9.914;2022-10-23T07:49:08;9.80;;;4.00;;
71606;SDS011;60641;53.556;9.914;2022-10-23T07:51:35;8.60;;;4.10;;
71606;SDS011;60641;53.556;9.914;2022-10-23T07:54:02;8.60;;;4.30;;
71606;SDS011;60641;53.556;9.914;2022-10-23T07:56:28;12.30;;;4.70;;
71606;SDS011;60641;53.556;9.914;2022-10-23T07:58:55;12.10;;;4.40;;
71606;SDS011;60641;53.556;9.914;2022-10-23T08:01:28;13.20;;;4.90;;
71606;SDS011;60641;53.556;9.914;2022-10-23T08:03:57;11.40;;;4.10;;
71606;SDS011;60641;53.556;9.914;2022-10-23T08:06:24;10.30;;;4.20;;
71606;SDS011;60641;53.556;9.914;2022-10-23T08:08:51;9.90;;;4.70;;
71606;SDS011;60641;53.556;9.914;2022-10-23T08:11:17;14.40;;;5.90;;
71606;SDS011;60641;53.556;9.914;2022-10-23T08:13:53;8.60;;;4.10;;
71606;SDS011;60641;53.556;9.914;2022-10-23T08:16:21;11.60;;;3.60;;
71606;SDS011;60641;53.556;9.914;2022-10-23T08:18:48;8.40;;;3.80;;
71606;SDS011;60641;53.556;9.914;2022-10-23T08:21:15;8.60;;;3.60;;
71606;SDS011;60641;53.556;9.914;2022-10-23T08:23:42;10.50;;;3.90;;
71606;SDS011;60641;53.556;9.914;2022-10-23T08:26:09;8.90;;;3.60;;
71606;SDS011;60641;53.556;9.914;2022-10-23T08:28:36;9.20;;;4.10;;
71606;SDS011;60641;53.556;9.914;2022-10-23T08:31:06;17.20;;;8.80;;
71606;SDS011;60641;53.556;9.914;2022-10-23T08:33:34;9.90;;;3.90;;
71606;SDS011;60641;53.556;9.914;2022-10-23T08:36:00;6.90;;;3.40;;
71606;SDS011;60641;53.556;9.914;2022-10-23T08:38:27;9.40;;;3.30;;
71606;SDS011;60641;53.556;9.914;2022-10-23T08:40:53;7.70;;;3.20;;
71606;SDS011;60641;53.556;9.914;2022-10-23T08:43:31;8.90;;;3.10;;
71606;SDS011;60641;53.556;9.914;2022-10-23T08:46:07;8.30;;;3.10;;
71606;SDS011;60641;53.556;9.914;2022-10-23T08:48:40;8.90;;;3.20;;
71606;SDS011;60641;53.556;9.914;2022-10-23T08:53:43;8.00;;;3.10;;
71606;SDS011;60641;53.556;9.914;2022-10-23T08:56:31;10.20;;;3.70;;
71606;SDS011;60641;53.556;9.914;2022-10-23T08:59:03;11.50;;;3.20;;
71606;SDS011;60641;53.556;9.914;2022-10-23T09:01:39;12.90;;;3.10;;
71606;SDS011;60641;53.556;9.914;2022-10-23T09:04:08;7.90;;;3.30;;
71606;SDS011;60641;53.556;9.914;2022-10-23T09:09:49;10.30;;;3.40;;
71606;SDS011;60641;53.556;9.914;2022-10-23T09:12:24;10.10;;;3.10;;
71606;SDS011;60641;53.556;9.914;2022-10-23T09:17:39;10.70;;;3.40;;
71606;SDS011;60641;53.556;9.914;2022-10-23T09:20:11;10.30;;;3.10;;
71606;SDS011;60641;53.556;9.914;2022-10-23T09:22:41;8.80;;;3.60;;
71606;SDS011;60641;53.556;9.914;2022-10-23T09:25:09;7.60;;;3.60;;
71606;SDS011;60641;53.556;9.914;2022-10-23T09:27:45;8.90;;;3.10;;
71606;SDS011;60641;53.556;9.914;2022-10-23T09:30:23;10.20;;;3.30;;
71606;SDS011;60641;53.556;9.914;2022-10-23T09:32:50;9.20;;;3.60;;
71606;SDS011;60641;53.556;9.914;2022-10-23T09:35:21;9.80;;;4.10;;
71606;SDS011;60641;53.556;9.914;2022-10-23T09:37:48;8.80;;;3.60;;
71606;SDS011;60641;53.556;9.914;2022-10-23T09:40:21;11.80;;;4.40;;
71606;SDS011;60641;53.556;9.914;2022-10-23T09:42:57;7.60;;;3.30;;
71606;SDS011;60641;53.556;9.914;2022-10-23T09:45:25;8.60;;;3.30;;
71606;SDS011;60641;53.556;9.914;2022-10-23T09:48:04;8.60;;;3.10;;
71606;SDS011;60641;53.556;9.914;2022-10-23T09:50:35;11.90;;;3.20;;
71606;SDS011;60641;53.556;9.914;2022-10-23T09:53:02;10.20;;;3.40;;
71606;SDS011;60641;53.556;9.914;2022-10-23T09:55:28;11.10;;;3.40;;
71606;SDS011;60641;53.556;9.914;2022-10-23T09:57:54;12.00;;;3.30;;
71606;SDS011;60641;53.556;9.914;2022-10-23T10:00:25;10.10;;;3.50;;
71606;SDS011;60641;53.556;9.914;2022-10-23T10:05:23;8.10;;;3.20;;
71606;SDS011;60641;53.556;9.914;2022-10-23T10:14:42;9.90;;;3.50;;
71606;SDS011;60641;53.556;9.914;2022-10-23T10:25:20;10.50;;;3.30;;
71606;SDS011;60641;53.556;9.914;2022-10-23T10:30:23;8.60;;;3.10;;
71606;SDS011;60641;53.556;9.914;2022-10-23T10:32:53;7.60;;;3.10;;
71606;SDS011;60641;53.556;9.914;2022-10-23T10:38:12;8.90;;;3.40;;
71606;SDS011;60641;53.556;9.914;2022-10-23T10:40:41;10.30;;;3.10;;
71606;SDS011;60641;53.556;9.914;2022-10-23T10:48:41;10.60;;;3.10;;
71606;SDS011;60641;53.556;9.914;2022-10-23T10:54:01;13.00;;;3.20;;
71606;SDS011;60641;53.556;9.914;2022-10-23T10:56:36;10.10;;;3.00;;
71606;SDS011;60641;53.556;9.914;2022-10-23T10:59:09;7.50;;;2.90;;
71606;SDS011;60641;53.556;9.914;2022-10-23T11:01:41;11.10;;;3.90;;
71606;SDS011;60641;53.556;9.914;2022-10-23T11:04:21;8.30;;;2.70;;
71606;SDS011;60641;53.556;9.914;2022-10-23T11:06:50;9.20;;;2.90;;
71606;SDS011;60641;53.556;9.914;2022-10-23T11:09:20;7.50;;;2.80;;
71606;SDS011;60641;53.556;9.914;2022-10-23T11:11:47;9.30;;;3.10;;
71606;SDS011;60641;53.556;9.914;2022-10-23T11:14:21;10.30;;;2.90;;
71606;SDS011;60641;53.556;9.914;2022-10-23T11:16:49;7.20;;;2.50;;
71606;SDS011;60641;53.556;9.914;2022-10-23T11:19:22;9.60;;;3.20;;
71606;SDS011;60641;53.556;9.914;2022-10-23T11:21:55;10.10;;;3.10;;
71606;SDS011;60641;53.556;9.914;2022-10-23T11:33:06;10.40;;;2.60;;
71606;SDS011;60641;53.556;9.914;2022-10-23T11:35:41;9.30;;;2.60;;
71606;SDS011;60641;53.556;9.914;2022-10-23T11:40:52;12.80;;;3.10;;
71606;SDS011;60641;53.556;9.914;2022-10-23T11:48:50;11.90;;;3.00;;
71606;SDS011;60641;53.556;9.914;2022-10-23T11:53:52;9.30;;;2.60;;
71606;SDS011;60641;53.556;9.914;2022-10-23T12:01:29;6.80;;;2.10;;
71606;SDS011;60641;53.556;9.914;2022-10-23T12:06:42;10.80;;;2.90;;
71606;SDS011;60641;53.556;9.914;2022-10-23T12:09:30;8.40;;;2.50;;
71606;SDS011;60641;53.556;9.914;2022-10-23T12:17:01;12.00;;;2.70;;
71606;SDS011;60641;53.556;9.914;2022-10-23T12:19:29;6.90;;;2.00;;
71606;SDS011;60641;53.556;9.914;2022-10-23T12:22:09;8.40;;;2.30;;
71606;SDS011;60641;53.556;9.914;2022-10-23T12:27:46;9.70;;;2.20;;
71606;SDS011;60641;53.556;9.914;2022-10-23T12:36:16;7.50;;;1.90;;
71606;SDS011;60641;53.556;9.914;2022-10-23T12:39:01;7.60;;;2.20;;
71606;SDS011;60641;53.556;9.914;2022-10-23T12:41:27;7.90;;;2.50;;
71606;SDS011;60641;53.556;9.914;2022-10-23T12:43:56;8.10;;;2.00;;
71606;SDS011;60641;53.556;9.914;2022-10-23T12:46:31;7.30;;;1.90;;
71606;SDS011;60641;53.556;9.914;2022-10-23T12:49:03;9.30;;;2.30;;
71606;SDS011;60641;53.556;9.914;2022-10-23T12:51:36;7.60;;;2.30;;
71606;SDS011;60641;53.556;9.914;2022-10-23T12:54:03;8.90;;;2.90;;
71606;SDS011;60641;53.556;9.914;2022-10-23T12:56:44;10.60;;;2.60;;
71606;SDS011;60641;53.556;9.914;2022-10-23T12:59:16;11.10;;;2.80;;
71606;SDS011;60641;53.556;9.914;2022-10-23T13:01:45;8.80;;;2.60;;
71606;SDS011;60641;53.556;9.914;2022-10-23T13:06:58;13.30;;;2.70;;
71606;SDS011;60641;53.556;9.914;2022-10-23T13:09:29;12.10;;;2.80;;
71606;SDS011;60641;53.556;9.914;2022-10-23T13:11:57;10.40;;;2.90;;
71606;SDS011;60641;53.556;9.914;2022-10-23T13:14:33;10.50;;;2.60;;
71606;SDS011;60641;53.556;9.914;2022-10-23T13:17:05;10.40;;;2.80;;
71606;SDS011;60641;53.556;9.914;2022-10-23T13:19:33;8.20;;;2.50;;
71606;SDS011;60641;53.556;9.914;2022-10-23T13:22:00;9.50;;;2.70;;
71606;SDS011;60641;53.556;9.914;2022-10-23T13:24:29;8.20;;;2.60;;
71606;SDS011;60641;53.556;9.914;2022-10-23T13:26:56;10.60;;;3.00;;
71606;SDS011;60641;53.556;9.914;2022-10-23T13:29:26;9.30;;;2.90;;
71606;SDS011;60641;53.556;9.914;2022-10-23T13:31:55;7.50;;;3.00;;
71606;SDS011;60641;53.556;9.914;2022-10-23T13:34:27;9.00;;;3.40;;
71606;SDS011;60641;53.556;9.914;2022-10-23T13:36:58;12.20;;;3.60;;
71606;SDS011;60641;53.556;9.914;2022-10-23T13:39:27;11.00;;;3.50;;
71606;SDS011;60641;53.556;9.914;2022-10-23T13:41:56;12.70;;;4.50;;
71606;SDS011;60641;53.556;9.914;2022-10-23T13:44:25;13.20;;;4.20;;
71606;SDS011;60641;53.556;9.914;2022-10-23T13:46:52;13.60;;;3.80;;
71606;SDS011;60641;53.556;9.914;2022-10-23T13:49:18;11.30;;;3.90;;
71606;SDS011;60641;53.556;9.914;2022-10-23T13:54:20;7.90;;;2.60;;
71606;SDS011;60641;53.556;9.914;2022-10-23T13:56:50;10.60;;;3.40;;
71606;SDS011;60641;53.556;9.914;2022-10-23T13:59:17;9.80;;;3.10;;
71606;SDS011;60641;53.556;9.914;2022-10-23T14:01:44;11.30;;;3.30;;
71606;SDS011;60641;53.556;9.914;2022-10-23T14:04:15;9.10;;;3.40;;
71606;SDS011;60641;53.556;9.914;2022-10-23T14:06:42;10.50;;;3.30;;
71606;SDS011;60641;53.556;9.914;2022-10-23T14:09:12;8.00;;;2.80;;
71606;SDS011;60641;53.556;9.914;2022-10-23T14:11:40;11.70;;;3.40;;
71606;SDS011;60641;53.556;9.914;2022-10-23T14:14:07;13.50;;;3.10;;
71606;SDS011;60641;53.556;9.914;2022-10-23T14:16:33;10.60;;;3.90;;
71606;SDS011;60641;53.556;9.914;2022-10-23T14:19:00;11.20;;;3.40;;
71606;SDS011;60641;53.556;9.914;2022-10-23T14:21:26;11.20;;;3.20;;
71606;SDS011;60641;53.556;9.914;2022-10-23T14:23:53;13.40;;;3.50;;
71606;SDS011;60641;53.556;9.914;2022-10-23T14:26:21;10.10;;;3.80;;
71606;SDS011;60641;53.556;9.914;2022-10-23T14:28:52;10.90;;;3.00;;
71606;SDS011;60641;53.556;9.914;2022-10-23T14:31:20;9.60;;;2.90;;
71606;SDS011;60641;53.556;9.914;2022-10-23T14:33:49;8.50;;;2.90;;
71606;SDS011;60641;53.556;9.914;2022-10-23T14:36:18;9.70;;;2.60;;
71606;SDS011;60641;53.556;9.914;2022-10-23T14:38:44;8.60;;;2.20;;
71606;SDS011;60641;53.556;9.914;2022-10-23T14:41:12;12.10;;;2.50;;
71606;SDS011;60641;53.556;9.914;2022-10-23T14:43:40;10.00;;;3.00;;
71606;SDS011;60641;53.556;9.914;2022-10-23T14:46:08;8.40;;;2.80;;
71606;SDS011;60641;53.556;9.914;2022-10-23T14:48:36;13.60;;;2.80;;
71606;SDS011;60641;53.556;9.914;2022-10-23T14:51:04;7.10;;;2.30;;
71606;SDS011;60641;53.556;9.914;2022-10-23T14:53:32;7.90;;;2.60;;
71606;SDS011;60641;53.556;9.914;2022-10-23T14:56:00;8.60;;;2.50;;
71606;SDS011;60641;53.556;9.914;2022-10-23T14:58:28;8.30;;;2.90;;
71606;SDS011;60641;53.556;9.914;2022-10-23T15:00:58;8.90;;;2.60;;
71606;SDS011;60641;53.556;9.914;2022-10-23T15:03:27;12.00;;;2.70;;
71606;SDS011;60641;53.556;9.914;2022-10-23T15:05:54;10.50;;;2.80;;
71606;SDS011;60641;53.556;9.914;2022-10-23T15:08:20;9.80;;;2.90;;
71606;SDS011;60641;53.556;9.914;2022-10-23T15:10:47;10.40;;;3.10;;
71606;SDS011;60641;53.556;9.914;2022-10-23T15:13:14;11.60;;;2.80;;
71606;SDS011;60641;53.556;9.914;2022-10-23T15:15:40;9.20;;;2.80;;
71606;SDS011;60641;53.556;9.914;2022-10-23T15:18:09;11.10;;;3.00;;
71606;SDS011;60641;53.556;9.914;2022-10-23T15:20:36;8.80;;;2.80;;
71606;SDS011;60641;53.556;9.914;2022-10-23T15:23:02;10.20;;;3.20;;
71606;SDS011;60641;53.556;9.914;2022-10-23T15:25:29;9.60;;;2.90;;
71606;SDS011;60641;53.556;9.914;2022-10-23T15:27:55;9.70;;;2.90;;
71606;SDS011;60641;53.556;9.914;2022-10-23T15:30:22;9.20;;;2.30;;
71606;SDS011;60641;53.556;9.914;2022-10-23T15:32:48;8.30;;;2.50;;
71606;SDS011;60641;53.556;9.914;2022-10-23T15:35:15;8.70;;;2.60;;
71606;SDS011;60641;53.556;9.914;2022-10-23T15:37:41;10.90;;;3.10;;
71606;SDS011;60641;53.556;9.914;2022-10-23T15:40:08;10.30;;;2.70;;
71606;SDS011;60641;53.556;9.914;2022-10-23T15:42:34;9.50;;;2.70;;
71606;SDS011;60641;53.556;9.914;2022-10-23T15:45:01;11.20;;;2.80;;
71606;SDS011;60641;53.556;9.914;2022-10-23T15:47:27;9.60;;;3.10;;
71606;SDS011;60641;53.556;9.914;2022-10-23T15:49:53;16.20;;;3.40;;
71606;SDS011;60641;53.556;9.914;2022-10-23T15:52:20;11.30;;;3.40;;
71606;SDS011;60641;53.556;9.914;2022-10-23T15:54:46;8.30;;;3.00;;
71606;SDS011;60641;53.556;9.914;2022-10-23T15:57:16;9.90;;;3.40;;
71606;SDS011;60641;53.556;9.914;2022-10-23T15:59:42;11.70;;;3.40;;
71606;SDS011;60641;53.556;9.914;2022-10-23T16:02:09;13.10;;;5.30;;
71606;SDS011;60641;53.556;9.914;2022-10-23T16:04:36;10.20;;;2.90;;
71606;SDS011;60641;53.556;9.914;2022-10-23T16:07:02;7.50;;;3.00;;
71606;SDS011;60641;53.556;9.914;2022-10-23T16:09:29;8.70;;;2.70;;
71606;SDS011;60641;53.556;9.914;2022-10-23T16:11:55;9.40;;;2.60;;
71606;SDS011;60641;53.556;9.914;2022-10-23T16:14:22;17.10;;;6.40;;
71606;SDS011;60641;53.556;9.914;2022-10-23T16:16:48;13.60;;;5.00;;
71606;SDS011;60641;53.556;9.914;2022-10-23T16:19:14;11.40;;;4.00;;
71606;SDS011;60641;53.556;9.914;2022-10-23T16:21:41;8.50;;;2.70;;
71606;SDS011;60641;53.556;9.914;2022-10-23T16:24:07;8.50;;;2.80;;
71606;SDS011;60641;53.556;9.914;2022-10-23T16:26:34;11.70;;;4.10;;
71606;SDS011;60641;53.556;9.914;2022-10-23T16:29:02;9.10;;;3.00;;
71606;SDS011;60641;53.556;9.914;2022-10-23T16:31:30;7.70;;;2.90;;
71606;SDS011;60641;53.556;9.914;2022-10-23T16:33:57;12.80;;;2.80;;
71606;SDS011;60641;53.556;9.914;2022-10-23T16:36:25;11.10;;;3.20;;
71606;SDS011;60641;53.556;9.914;2022-10-23T16:38:52;7.80;;;2.80;;
71606;SDS011;60641;53.556;9.914;2022-10-23T16:41:18;9.80;;;2.70;;